createdAt,value
2024-03-24T00:00:38.822Z,0.00
2024-03-24T00:01:38.838Z,0.00
2024-03-24T00:02:38.851Z,0.00
2024-03-24T00:03:38.870Z,0.00
2024-03-24T00:04:39.800Z,0.00
2024-03-24T00:05:38.913Z,0.00
2024-03-24T00:06:38.923Z,0.00
2024-03-24T00:07:38.943Z,0.00
2024-03-24T00:08:38.959Z,0.00
2024-03-24T00:09:38.982Z,0.00
2024-03-24T00:10:39.021Z,0.00
2024-03-24T00:11:39.016Z,0.00
2024-03-24T00:12:39.037Z,0.00
2024-03-24T00:13:39.052Z,0.00
2024-03-24T00:14:39.072Z,0.00
2024-03-24T00:15:39.092Z,0.00
2024-03-24T00:16:39.119Z,0.00
2024-03-24T00:17:39.127Z,0.00
2024-03-24T00:18:39.145Z,0.00
2024-03-24T00:19:39.167Z,0.00
2024-03-24T00:20:39.194Z,0.00
2024-03-24T00:21:39.206Z,0.00
2024-03-24T00:22:39.218Z,0.00
2024-03-24T00:23:39.240Z,0.00
2024-03-24T00:24:39.255Z,0.00
2024-03-24T00:25:39.279Z,0.00
2024-03-24T00:26:39.297Z,0.00
2024-03-24T00:27:39.321Z,0.00
2024-03-24T00:28:39.333Z,0.00
2024-03-24T00:29:39.349Z,0.00
2024-03-24T00:30:39.371Z,0.00
2024-03-24T00:31:39.386Z,0.00
2024-03-24T00:32:39.411Z,0.00
2024-03-24T00:33:39.430Z,0.00
2024-03-24T00:34:39.445Z,0.00
2024-03-24T00:35:39.465Z,0.00
2024-03-24T00:36:39.486Z,0.00
2024-03-24T00:37:39.501Z,0.00
2024-03-24T00:38:39.520Z,0.00
2024-03-24T00:39:42.456Z,0.00
2024-03-24T00:40:39.566Z,0.00
2024-03-24T00:41:39.573Z,0.00
2024-03-24T00:42:39.594Z,0.00
2024-03-24T00:43:39.621Z,0.00
2024-03-24T00:44:39.629Z,0.00
2024-03-24T00:45:39.646Z,0.00
2024-03-24T00:46:39.667Z,0.00
2024-03-24T00:47:39.683Z,0.00
2024-03-24T00:48:39.706Z,0.00
2024-03-24T00:49:39.723Z,0.00
2024-03-24T00:50:39.737Z,0.00
2024-03-24T00:51:39.757Z,0.00
2024-03-24T00:52:39.782Z,0.00
2024-03-24T00:53:39.805Z,0.00
2024-03-24T00:54:39.817Z,0.00
2024-03-24T00:55:39.832Z,0.00
2024-03-24T00:56:39.854Z,0.00
2024-03-24T00:57:39.871Z,0.00
2024-03-24T00:58:39.887Z,0.00
2024-03-24T00:59:39.919Z,0.00
2024-03-24T01:00:39.932Z,0.00
2024-03-24T01:01:39.944Z,0.00
2024-03-24T01:02:39.968Z,0.00
2024-03-24T01:03:39.980Z,0.00
2024-03-24T01:04:39.997Z,0.00
2024-03-24T01:05:40.024Z,0.00
2024-03-24T01:06:40.035Z,0.00
2024-03-24T01:07:40.056Z,0.00
2024-03-24T01:08:47.233Z,0.00
2024-03-24T01:10:44.713Z,0.00
2024-03-24T01:11:44.570Z,0.00
2024-03-24T01:12:44.590Z,0.00
2024-03-24T01:13:44.617Z,0.00
2024-03-24T01:14:44.628Z,0.00
2024-03-24T01:15:44.648Z,0.00
2024-03-24T01:16:44.668Z,0.00
2024-03-24T01:17:44.690Z,0.00
2024-03-24T01:18:44.704Z,0.00
2024-03-24T01:19:44.723Z,0.00
2024-03-24T01:20:44.738Z,0.00
2024-03-24T01:21:44.756Z,0.00
2024-03-24T01:22:44.775Z,0.00
2024-03-24T01:23:44.790Z,0.00
2024-03-24T01:24:44.811Z,0.00
2024-03-24T01:25:44.831Z,0.00
2024-03-24T01:26:44.851Z,0.00
2024-03-24T01:27:44.868Z,0.00
2024-03-24T01:28:44.883Z,0.00
2024-03-24T01:29:44.903Z,0.00
2024-03-24T01:30:44.923Z,0.00
2024-03-24T01:31:44.943Z,0.00
2024-03-24T01:32:44.955Z,0.00
2024-03-24T01:33:44.976Z,0.00
2024-03-24T01:34:45.011Z,0.00
2024-03-24T01:35:45.013Z,0.00
2024-03-24T01:36:45.029Z,0.00
2024-03-24T01:37:45.053Z,0.00
2024-03-24T01:38:45.070Z,0.00
2024-03-24T01:39:45.087Z,0.00
2024-03-24T01:40:45.103Z,0.00
2024-03-24T01:41:45.124Z,0.00
2024-03-24T01:42:45.143Z,0.00
2024-03-24T01:43:45.162Z,0.00
2024-03-24T01:44:45.182Z,0.00
2024-03-24T01:45:45.259Z,0.00
2024-03-24T01:46:45.219Z,0.00
2024-03-24T01:47:45.236Z,0.00
2024-03-24T01:48:45.255Z,0.00
2024-03-24T01:49:45.275Z,0.00
2024-03-24T01:50:45.292Z,0.00
2024-03-24T01:51:45.312Z,0.00
2024-03-24T01:52:45.337Z,0.00
2024-03-24T01:53:45.352Z,0.00
2024-03-24T01:54:45.367Z,0.00
2024-03-24T01:55:45.385Z,0.00
2024-03-24T01:56:45.422Z,0.00
2024-03-24T01:57:45.536Z,0.00
2024-03-24T01:58:45.441Z,0.00
2024-03-24T01:59:45.459Z,0.00
2024-03-24T02:00:45.478Z,0.00
2024-03-24T02:01:45.504Z,0.00
2024-03-24T02:02:45.521Z,0.00
2024-03-24T02:03:45.541Z,0.00
2024-03-24T02:04:45.553Z,0.00
2024-03-24T02:05:45.575Z,0.00
2024-03-24T02:06:45.599Z,0.00
2024-03-24T02:07:45.611Z,0.00
2024-03-24T02:08:45.634Z,0.00
2024-03-24T02:09:45.658Z,0.00
2024-03-24T02:10:45.671Z,0.00
2024-03-24T02:11:45.696Z,0.00
2024-03-24T02:12:45.718Z,0.00
2024-03-24T02:13:45.723Z,0.00
2024-03-24T02:14:45.743Z,0.00
2024-03-24T02:15:45.811Z,0.00
2024-03-24T02:16:45.779Z,0.00
2024-03-24T02:17:47.064Z,0.00
2024-03-24T02:18:46.671Z,0.00
2024-03-24T02:19:45.841Z,0.00
2024-03-24T02:20:45.858Z,0.00
2024-03-24T02:21:45.872Z,0.00
2024-03-24T02:22:45.895Z,0.00
2024-03-24T02:23:45.912Z,0.00
2024-03-24T02:24:45.938Z,0.00
2024-03-24T02:25:45.954Z,0.00
2024-03-24T02:26:45.973Z,0.00
2024-03-24T02:27:45.994Z,0.00
2024-03-24T02:28:46.014Z,0.00
2024-03-24T02:29:46.051Z,0.00
2024-03-24T02:30:46.057Z,0.00
2024-03-24T02:31:46.070Z,0.00
2024-03-24T02:32:46.082Z,0.00
2024-03-24T02:33:46.101Z,0.00
2024-03-24T02:34:46.121Z,0.00
2024-03-24T02:35:46.139Z,0.00
2024-03-24T02:36:46.172Z,0.00
2024-03-24T02:37:46.176Z,0.00
2024-03-24T02:38:46.207Z,0.00
2024-03-24T02:39:46.221Z,0.00
2024-03-24T02:40:48.808Z,0.00
2024-03-24T02:41:46.262Z,0.00
2024-03-24T02:42:46.271Z,0.00
2024-03-24T02:43:46.291Z,0.00
2024-03-24T02:44:46.313Z,0.00
2024-03-24T02:45:46.334Z,0.00
2024-03-24T02:46:46.353Z,0.00
2024-03-24T02:47:46.365Z,0.00
2024-03-24T02:48:46.384Z,0.00
2024-03-24T02:49:46.401Z,0.00
2024-03-24T02:50:46.418Z,0.00
2024-03-24T02:51:46.445Z,0.00
2024-03-24T02:52:46.458Z,0.00
2024-03-24T02:53:46.490Z,0.00
2024-03-24T02:54:46.505Z,0.00
2024-03-24T02:55:46.525Z,0.00
2024-03-24T02:56:46.538Z,0.00
2024-03-24T02:57:46.554Z,0.00
2024-03-24T02:58:46.573Z,0.00
2024-03-24T02:59:46.602Z,0.00
2024-03-24T03:00:46.612Z,0.00
2024-03-24T03:01:46.636Z,0.00
2024-03-24T03:02:46.655Z,0.00
2024-03-24T03:03:46.669Z,0.00
2024-03-24T03:04:46.696Z,0.00
2024-03-24T03:05:46.706Z,0.00
2024-03-24T03:06:46.727Z,0.00
2024-03-24T03:07:46.756Z,0.00
2024-03-24T03:08:46.767Z,0.00
2024-03-24T03:09:46.785Z,0.00
2024-03-24T03:10:46.814Z,0.00
2024-03-24T03:11:46.823Z,0.00
2024-03-24T03:12:46.843Z,0.00
2024-03-24T03:13:46.863Z,0.00
2024-03-24T03:14:46.906Z,0.00
2024-03-24T03:15:46.911Z,0.00
2024-03-24T03:16:46.920Z,0.00
2024-03-24T03:17:46.936Z,0.00
2024-03-24T03:18:46.995Z,0.00
2024-03-24T03:19:46.984Z,0.00
2024-03-24T03:20:47.017Z,0.00
2024-03-24T03:21:47.024Z,0.00
2024-03-24T03:22:47.028Z,0.00
2024-03-24T03:23:47.053Z,0.00
2024-03-24T03:24:47.072Z,0.00
2024-03-24T03:25:47.092Z,0.00
2024-03-24T03:26:47.110Z,0.00
2024-03-24T03:27:47.134Z,0.00
2024-03-24T03:28:47.147Z,0.00
2024-03-24T03:29:47.166Z,0.00
2024-03-24T03:30:47.181Z,0.00
2024-03-24T03:31:47.208Z,0.00
2024-03-24T03:32:47.228Z,0.00
2024-03-24T03:33:47.242Z,0.00
2024-03-24T03:34:47.266Z,0.00
2024-03-24T03:35:47.300Z,0.00
2024-03-24T03:36:47.298Z,0.00
2024-03-24T03:37:47.325Z,0.00
2024-03-24T03:38:47.345Z,0.00
2024-03-24T03:39:47.356Z,0.00
2024-03-24T03:40:47.378Z,0.00
2024-03-24T03:41:47.394Z,0.00
2024-03-24T03:42:47.424Z,0.00
2024-03-24T03:43:47.431Z,0.00
2024-03-24T03:44:47.450Z,0.00
2024-03-24T03:45:47.468Z,0.00
2024-03-24T03:46:47.499Z,0.00
2024-03-24T03:47:47.507Z,0.00
2024-03-24T03:48:47.533Z,0.00
2024-03-24T03:49:47.550Z,0.00
2024-03-24T03:50:47.561Z,0.00
2024-03-24T03:51:47.576Z,0.00
2024-03-24T03:52:47.601Z,0.00
2024-03-24T03:53:47.617Z,0.00
2024-03-24T03:54:47.642Z,0.00
2024-03-24T03:55:47.654Z,0.00
2024-03-24T03:56:47.681Z,0.00
2024-03-24T03:57:47.701Z,0.00
2024-03-24T03:58:47.714Z,0.00
2024-03-24T03:59:47.732Z,0.00
2024-03-24T04:00:47.768Z,0.00
2024-03-24T04:01:47.771Z,0.00
2024-03-24T04:02:47.789Z,0.00
2024-03-24T04:03:47.809Z,0.00
2024-03-24T04:04:47.829Z,0.00
2024-03-24T04:05:47.852Z,0.00
2024-03-24T04:06:47.876Z,0.00
2024-03-24T04:07:47.893Z,0.00
2024-03-24T04:08:47.921Z,0.00
2024-03-24T04:09:47.924Z,0.00
2024-03-24T04:10:47.943Z,0.00
2024-03-24T04:11:47.959Z,0.00
2024-03-24T04:12:47.979Z,0.00
2024-03-24T04:13:48.000Z,0.00
2024-03-24T04:14:48.058Z,0.00
2024-03-24T04:15:48.044Z,0.00
2024-03-24T04:16:48.053Z,0.00
2024-03-24T04:17:48.075Z,0.00
2024-03-24T04:18:48.096Z,0.00
2024-03-24T04:19:48.128Z,0.00
2024-03-24T04:20:48.130Z,0.00
2024-03-24T04:21:48.158Z,0.00
2024-03-24T04:22:48.162Z,0.00
2024-03-24T04:23:48.190Z,0.00
2024-03-24T04:24:48.211Z,0.00
2024-03-24T04:25:48.228Z,0.00
2024-03-24T04:26:48.251Z,0.00
2024-03-24T04:27:48.264Z,0.00
2024-03-24T04:28:48.296Z,0.00
2024-03-24T04:29:48.317Z,0.00
2024-03-24T04:30:48.323Z,0.00
2024-03-24T04:31:48.340Z,0.00
2024-03-24T04:32:48.354Z,0.00
2024-03-24T04:33:48.377Z,0.00
2024-03-24T04:34:48.395Z,0.00
2024-03-24T04:35:48.413Z,0.00
2024-03-24T04:36:48.430Z,0.00
2024-03-24T04:37:48.455Z,0.00
2024-03-24T04:38:48.494Z,0.00
2024-03-24T04:39:48.491Z,0.00
2024-03-24T04:40:48.508Z,0.00
2024-03-24T04:41:48.526Z,0.00
2024-03-24T04:42:48.547Z,0.00
2024-03-24T04:43:48.576Z,0.00
2024-03-24T04:44:48.583Z,0.00
2024-03-24T04:45:48.601Z,0.00
2024-03-24T04:46:48.635Z,0.00
2024-03-24T04:47:48.661Z,0.00
2024-03-24T04:48:48.670Z,0.00
2024-03-24T04:49:48.686Z,0.00
2024-03-24T04:50:48.707Z,0.00
2024-03-24T04:51:48.723Z,0.00
2024-03-24T04:52:48.738Z,0.00
2024-03-24T04:53:48.755Z,0.00
2024-03-24T04:54:48.773Z,0.00
2024-03-24T04:55:48.803Z,0.00
2024-03-24T04:56:48.811Z,0.00
2024-03-24T04:57:48.839Z,0.00
2024-03-24T04:58:48.852Z,0.00
2024-03-24T04:59:48.874Z,0.00
2024-03-24T05:00:48.886Z,0.00
2024-03-24T05:01:48.906Z,4.00
2024-03-24T05:02:48.927Z,4.00
2024-03-24T05:03:48.945Z,4.00
2024-03-24T05:04:48.962Z,4.00
2024-03-24T05:05:48.985Z,4.00
2024-03-24T05:06:49.003Z,8.00
2024-03-24T05:07:49.022Z,4.00
2024-03-24T05:08:49.042Z,8.00
2024-03-24T05:09:49.058Z,12.00
2024-03-24T05:10:49.109Z,12.00
2024-03-24T05:11:49.093Z,16.00
2024-03-24T05:12:49.123Z,16.00
2024-03-24T05:13:49.137Z,12.00
2024-03-24T05:14:49.166Z,16.00
2024-03-24T05:15:49.174Z,16.00
2024-03-24T05:16:49.189Z,20.00
2024-03-24T05:17:49.210Z,20.00
2024-03-24T05:18:49.238Z,28.00
2024-03-24T05:19:49.249Z,32.00
2024-03-24T05:20:49.270Z,36.00
2024-03-24T05:21:49.289Z,32.00
2024-03-24T05:22:49.307Z,36.00
2024-03-24T05:23:49.336Z,40.00
2024-03-24T05:24:49.351Z,40.00
2024-03-24T05:25:49.370Z,40.00
2024-03-24T05:26:49.385Z,44.00
2024-03-24T05:27:49.404Z,36.00
2024-03-24T05:28:55.683Z,44.00
2024-03-24T05:29:49.439Z,48.00
2024-03-24T05:30:49.464Z,56.00
2024-03-24T05:31:49.480Z,80.00
2024-03-24T05:32:49.498Z,88.00
2024-03-24T05:33:49.518Z,96.00
2024-03-24T05:34:49.535Z,108.00
2024-03-24T05:35:49.552Z,104.00
2024-03-24T05:36:49.575Z,136.00
2024-03-24T05:37:49.601Z,180.00
2024-03-24T05:38:49.611Z,184.00
2024-03-24T05:39:49.632Z,148.00
2024-03-24T05:40:49.646Z,144.00
2024-03-24T05:41:49.688Z,128.00
2024-03-24T05:42:49.687Z,188.00
2024-03-24T05:43:49.713Z,264.00
2024-03-24T05:44:49.731Z,312.00
2024-03-24T05:45:49.758Z,288.00
2024-03-24T05:46:49.773Z,292.00
2024-03-24T05:47:49.782Z,340.00
2024-03-24T05:48:49.802Z,352.00
2024-03-24T05:49:49.821Z,492.00
2024-03-24T05:50:49.838Z,520.00
2024-03-24T05:51:49.860Z,544.00
2024-03-24T05:52:49.879Z,384.00
2024-03-24T05:53:49.896Z,548.00
2024-03-24T05:54:49.921Z,620.00
2024-03-24T05:55:49.937Z,752.00
2024-03-24T05:56:49.953Z,808.00
2024-03-24T05:57:49.970Z,876.00
2024-03-24T05:58:49.991Z,816.00
2024-03-24T05:59:50.021Z,660.00
2024-03-24T06:00:50.036Z,628.00
2024-03-24T06:01:50.046Z,628.00
2024-03-24T06:02:50.067Z,600.00
2024-03-24T06:03:50.088Z,500.00
2024-03-24T06:04:50.107Z,420.00
2024-03-24T06:05:50.126Z,516.00
2024-03-24T06:06:50.145Z,548.00
2024-03-24T06:07:50.163Z,500.00
2024-03-24T06:08:50.185Z,528.00
2024-03-24T06:09:50.199Z,612.00
2024-03-24T06:10:50.230Z,720.00
2024-03-24T06:11:50.239Z,820.00
2024-03-24T06:12:50.277Z,808.00
2024-03-24T06:13:50.277Z,880.00
2024-03-24T06:14:50.302Z,1004.00
2024-03-24T06:15:50.319Z,1336.00
2024-03-24T06:16:50.335Z,1540.00
2024-03-24T06:17:50.353Z,1488.00
2024-03-24T06:18:50.375Z,1640.00
2024-03-24T06:19:50.400Z,1548.00
2024-03-24T06:20:50.427Z,1596.00
2024-03-24T06:21:50.433Z,1560.00
2024-03-24T06:22:50.446Z,1676.00
2024-03-24T06:23:50.469Z,1456.00
2024-03-24T06:24:50.489Z,1404.00
2024-03-24T06:25:50.513Z,1488.00
2024-03-24T06:26:50.537Z,1616.00
2024-03-24T06:27:50.550Z,1832.00
2024-03-24T06:28:50.569Z,1764.00
2024-03-24T06:29:50.583Z,1396.00
2024-03-24T06:30:50.600Z,1620.00
2024-03-24T06:31:50.643Z,1288.00
2024-03-24T06:32:50.647Z,1356.00
2024-03-24T06:33:50.655Z,1080.00
2024-03-24T06:34:50.681Z,1120.00
2024-03-24T06:35:50.703Z,1488.00
2024-03-24T06:36:50.715Z,1232.00
2024-03-24T06:37:50.792Z,1332.00
2024-03-24T06:38:50.754Z,1324.00
2024-03-24T06:39:50.770Z,1520.00
2024-03-24T06:40:50.828Z,1812.00
2024-03-24T06:41:50.809Z,1848.00
2024-03-24T06:42:50.832Z,1860.00
2024-03-24T06:43:50.848Z,1840.00
2024-03-24T06:44:50.870Z,2148.00
2024-03-24T06:45:52.997Z,2328.00
2024-03-24T06:46:50.908Z,2544.00
2024-03-24T06:47:50.925Z,3016.00
2024-03-24T06:48:50.948Z,3520.00
2024-03-24T06:49:50.963Z,3872.00
2024-03-24T06:50:50.985Z,4280.00
2024-03-24T06:51:51.003Z,3372.00
2024-03-24T06:52:51.029Z,2896.00
2024-03-24T06:53:51.041Z,2796.00
2024-03-24T06:54:51.064Z,2720.00
2024-03-24T06:55:51.085Z,3228.00
2024-03-24T06:56:51.102Z,3624.00
2024-03-24T06:57:51.130Z,3544.00
2024-03-24T06:58:51.140Z,3540.00
2024-03-24T06:59:51.979Z,3628.00
2024-03-24T07:00:51.177Z,3316.00
2024-03-24T07:01:51.196Z,2572.00
2024-03-24T07:02:51.215Z,2552.00
2024-03-24T07:03:51.241Z,2612.00
2024-03-24T07:04:51.256Z,2220.00
2024-03-24T07:05:51.276Z,2412.00
2024-03-24T07:06:51.294Z,2360.00
2024-03-24T07:07:51.314Z,2104.00
2024-03-24T07:08:51.334Z,2168.00
2024-03-24T07:09:51.355Z,2400.00
2024-03-24T07:10:51.380Z,2340.00
2024-03-24T07:11:51.394Z,2376.00
2024-03-24T07:12:51.414Z,2624.00
2024-03-24T07:13:51.433Z,3232.00
2024-03-24T07:14:51.462Z,3000.00
2024-03-24T07:15:53.777Z,4180.00
2024-03-24T07:16:51.493Z,4196.00
2024-03-24T07:17:51.512Z,5232.00
2024-03-24T07:18:51.528Z,5160.00
2024-03-24T07:19:51.550Z,5272.00
2024-03-24T07:20:51.572Z,5524.00
2024-03-24T07:21:51.591Z,5492.00
2024-03-24T07:22:51.617Z,4672.00
2024-03-24T07:23:51.629Z,3560.00
2024-03-24T07:24:51.649Z,3248.00
2024-03-24T07:25:51.674Z,3020.00
2024-03-24T07:26:51.689Z,3852.00
2024-03-24T07:27:51.708Z,4168.00
2024-03-24T07:28:51.740Z,5248.00
2024-03-24T07:29:51.749Z,5692.00
2024-03-24T07:30:51.770Z,5372.00
2024-03-24T07:31:51.786Z,4640.00
2024-03-24T07:32:51.807Z,3876.00
2024-03-24T07:33:51.866Z,3644.00
2024-03-24T07:34:51.853Z,4808.00
2024-03-24T07:35:51.888Z,5136.00
2024-03-24T07:36:51.887Z,5052.00
2024-03-24T07:37:51.909Z,4560.00
2024-03-24T07:38:51.930Z,4912.00
2024-03-24T07:39:51.954Z,4856.00
2024-03-24T07:40:51.965Z,4656.00
2024-03-24T07:41:51.992Z,4612.00
2024-03-24T07:42:52.008Z,5044.00
2024-03-24T07:43:52.033Z,5720.00
2024-03-24T07:44:52.048Z,5884.00
2024-03-24T07:45:52.070Z,6100.00
2024-03-24T07:46:52.091Z,5236.00
2024-03-24T07:47:52.110Z,4140.00
2024-03-24T07:48:54.038Z,3104.00
2024-03-24T07:49:52.147Z,1912.00
2024-03-24T07:50:52.172Z,1464.00
2024-03-24T07:51:52.197Z,1488.00
2024-03-24T07:52:53.985Z,2216.00
2024-03-24T07:53:52.231Z,2952.00
2024-03-24T07:54:52.248Z,3216.00
2024-03-24T07:55:52.288Z,3368.00
2024-03-24T07:56:52.294Z,4120.00
2024-03-24T07:57:52.310Z,5068.00
2024-03-24T07:58:52.340Z,5640.00
2024-03-24T07:59:52.353Z,5740.00
2024-03-24T08:00:52.373Z,6208.00
2024-03-24T08:01:52.392Z,6100.00
2024-03-24T08:02:52.413Z,6180.00
2024-03-24T08:03:52.434Z,6900.00
2024-03-24T08:04:52.454Z,6588.00
2024-03-24T08:05:52.476Z,5768.00
2024-03-24T08:06:52.487Z,6284.00
2024-03-24T08:07:54.697Z,5420.00
2024-03-24T08:08:52.532Z,5172.00
2024-03-24T08:09:52.553Z,5784.00
2024-03-24T08:10:52.583Z,5068.00
2024-03-24T08:11:52.596Z,3968.00
2024-03-24T08:12:52.610Z,3720.00
2024-03-24T08:13:52.629Z,3924.00
2024-03-24T08:14:52.654Z,3132.00
2024-03-24T08:15:52.681Z,2072.00
2024-03-24T08:16:52.696Z,1904.00
2024-03-24T08:17:52.714Z,1744.00
2024-03-24T08:18:52.733Z,1740.00
2024-03-24T08:19:52.753Z,2244.00
2024-03-24T08:20:55.220Z,3464.00
2024-03-24T08:21:52.797Z,5116.00
2024-03-24T08:22:52.848Z,7136.00
2024-03-24T08:23:52.845Z,5712.00
2024-03-24T08:24:52.855Z,7512.00
2024-03-24T08:25:52.876Z,8384.00
2024-03-24T08:26:52.897Z,8728.00
2024-03-24T08:27:52.916Z,8932.00
2024-03-24T08:28:52.934Z,9668.00
2024-03-24T08:29:52.959Z,11032.00
2024-03-24T08:30:52.981Z,12396.00
2024-03-24T08:31:53.003Z,13428.00
2024-03-24T08:32:53.020Z,9952.00
2024-03-24T08:33:53.059Z,10808.00
2024-03-24T08:34:53.054Z,11416.00
2024-03-24T08:35:53.079Z,10364.00
2024-03-24T08:36:53.102Z,9488.00
2024-03-24T08:37:53.133Z,8308.00
2024-03-24T08:38:53.142Z,7580.00
2024-03-24T08:39:53.164Z,5736.00
2024-03-24T08:40:53.188Z,4864.00
2024-03-24T08:41:53.216Z,4144.00
2024-03-24T08:42:53.226Z,3988.00
2024-03-24T08:43:53.249Z,4500.00
2024-03-24T08:44:53.268Z,6616.00
2024-03-24T08:45:53.285Z,8340.00
2024-03-24T08:46:53.306Z,9412.00
2024-03-24T08:47:53.327Z,6584.00
2024-03-24T08:48:53.355Z,5684.00
2024-03-24T08:49:53.374Z,5712.00
2024-03-24T08:50:53.395Z,5256.00
2024-03-24T08:51:53.415Z,7296.00
2024-03-24T08:52:53.434Z,10480.00
2024-03-24T08:53:53.455Z,8744.00
2024-03-24T08:54:53.483Z,8516.00
2024-03-24T08:55:55.579Z,12096.00
2024-03-24T08:56:53.522Z,13636.00
2024-03-24T08:57:53.546Z,13156.00
2024-03-24T08:58:53.565Z,15180.00
2024-03-24T08:59:53.584Z,11280.00
2024-03-24T09:00:53.601Z,11004.00
2024-03-24T09:01:53.644Z,12068.00
2024-03-24T09:02:53.654Z,12940.00
2024-03-24T09:03:53.669Z,9864.00
2024-03-24T09:04:53.724Z,12100.00
2024-03-24T09:05:53.718Z,8760.00
2024-03-24T09:06:53.739Z,9428.00
2024-03-24T09:07:53.767Z,12072.00
2024-03-24T09:08:53.786Z,12696.00
2024-03-24T09:09:53.806Z,11212.00
2024-03-24T09:10:53.829Z,8640.00
2024-03-24T09:11:53.842Z,7292.00
2024-03-24T09:12:54.634Z,8716.00
2024-03-24T09:13:53.887Z,10336.00
2024-03-24T09:14:53.913Z,10484.00
2024-03-24T09:15:53.937Z,9656.00
2024-03-24T09:16:53.948Z,10408.00
2024-03-24T09:17:53.972Z,10560.00
2024-03-24T09:18:54.001Z,9144.00
2024-03-24T09:19:54.022Z,8836.00
2024-03-24T09:20:54.067Z,9968.00
2024-03-24T09:21:54.062Z,9316.00
2024-03-24T09:22:54.098Z,8608.00
2024-03-24T09:23:55.987Z,8788.00
2024-03-24T09:24:54.125Z,9736.00
2024-03-24T09:25:54.194Z,11632.00
2024-03-24T09:26:54.168Z,10492.00
2024-03-24T09:27:54.193Z,10420.00
2024-03-24T09:28:54.211Z,10844.00
2024-03-24T09:29:54.235Z,11132.00
2024-03-24T09:30:54.256Z,10280.00
2024-03-24T09:31:54.279Z,11132.00
2024-03-24T09:32:54.303Z,11104.00
2024-03-24T09:33:54.325Z,7804.00
2024-03-24T09:34:58.813Z,8388.00
2024-03-24T09:35:54.368Z,9328.00
2024-03-24T09:36:54.405Z,8340.00
2024-03-24T09:37:54.411Z,8212.00
2024-03-24T09:38:54.436Z,8680.00
2024-03-24T09:39:54.457Z,7592.00
2024-03-24T09:40:54.484Z,7304.00
2024-03-24T09:41:54.502Z,7560.00
2024-03-24T09:42:54.526Z,8076.00
2024-03-24T09:43:54.545Z,7556.00
2024-03-24T09:44:54.570Z,7208.00
2024-03-24T09:45:54.598Z,9124.00
2024-03-24T09:46:54.614Z,10092.00
2024-03-24T09:47:54.636Z,12012.00
2024-03-24T09:48:54.662Z,11228.00
2024-03-24T09:49:54.681Z,9264.00
2024-03-24T09:50:54.702Z,8024.00
2024-03-24T09:51:54.721Z,7292.00
2024-03-24T09:52:54.750Z,7588.00
2024-03-24T09:53:54.770Z,9016.00
2024-03-24T09:54:54.790Z,9216.00
2024-03-24T09:55:54.824Z,7648.00
2024-03-24T09:56:54.835Z,10816.00
2024-03-24T09:58:06.775Z,10052.00
2024-03-24T09:58:54.878Z,8776.00
2024-03-24T09:59:54.902Z,7340.00
2024-03-24T10:00:54.922Z,5816.00
2024-03-24T10:01:54.955Z,5472.00
2024-03-24T10:02:54.970Z,7224.00
2024-03-24T10:03:54.993Z,8204.00
2024-03-24T10:04:55.016Z,8932.00
2024-03-24T10:05:55.035Z,9812.00
2024-03-24T10:06:55.060Z,11532.00
2024-03-24T10:07:55.076Z,12088.00
2024-03-24T10:08:55.102Z,12144.00
2024-03-24T10:09:55.123Z,10988.00
2024-03-24T10:10:55.157Z,9328.00
2024-03-24T10:11:55.168Z,8128.00
2024-03-24T10:12:55.192Z,9340.00
2024-03-24T10:13:55.220Z,8996.00
2024-03-24T10:14:55.236Z,9980.00
2024-03-24T10:15:55.255Z,9888.00
2024-03-24T10:16:55.277Z,7860.00
2024-03-24T10:17:55.304Z,8364.00
2024-03-24T10:18:55.324Z,9808.00
2024-03-24T10:19:55.345Z,7608.00
2024-03-24T10:20:55.363Z,9104.00
2024-03-24T10:21:55.408Z,11088.00
2024-03-24T10:22:55.413Z,10600.00
2024-03-24T10:23:55.446Z,7924.00
2024-03-24T10:24:55.455Z,7700.00
2024-03-24T10:25:55.479Z,7328.00
2024-03-24T10:26:55.513Z,7060.00
2024-03-24T10:27:55.525Z,6612.00
2024-03-24T10:28:55.542Z,8212.00
2024-03-24T10:29:55.580Z,10572.00
2024-03-24T10:30:55.597Z,12428.00
2024-03-24T10:31:55.608Z,12556.00
2024-03-24T10:32:55.629Z,12508.00
2024-03-24T10:33:55.648Z,12724.00
2024-03-24T10:34:55.672Z,12824.00
2024-03-24T10:35:55.697Z,13516.00
2024-03-24T10:36:55.720Z,13772.00
2024-03-24T10:37:55.740Z,14288.00
2024-03-24T10:38:55.770Z,13664.00
2024-03-24T10:39:55.783Z,12360.00
2024-03-24T10:40:55.803Z,10480.00
2024-03-24T10:41:55.831Z,7760.00
2024-03-24T10:42:55.850Z,9840.00
2024-03-24T10:43:55.878Z,10408.00
2024-03-24T10:44:55.900Z,12504.00
2024-03-24T10:45:55.918Z,13036.00
2024-03-24T10:46:55.943Z,10896.00
2024-03-24T10:47:55.969Z,6776.00
2024-03-24T10:48:55.986Z,4716.00
2024-03-24T10:49:56.007Z,5848.00
2024-03-24T10:50:56.029Z,7536.00
2024-03-24T10:51:56.055Z,6680.00
2024-03-24T10:52:58.137Z,5624.00
2024-03-24T10:53:56.103Z,6228.00
2024-03-24T10:54:56.140Z,4868.00
2024-03-24T10:55:56.148Z,6048.00
2024-03-24T10:56:56.167Z,6120.00
2024-03-24T10:57:56.233Z,7772.00
2024-03-24T10:58:56.208Z,7512.00
2024-03-24T10:59:56.236Z,5984.00
2024-03-24T11:00:56.260Z,5460.00
2024-03-24T11:01:56.274Z,6428.00
2024-03-24T11:02:56.303Z,6572.00
2024-03-24T11:03:56.321Z,7272.00
2024-03-24T11:04:56.346Z,7012.00
2024-03-24T11:05:56.371Z,6896.00
2024-03-24T11:06:56.393Z,7040.00
2024-03-24T11:07:56.414Z,6508.00
2024-03-24T11:08:56.444Z,5148.00
2024-03-24T11:09:56.467Z,5072.00
2024-03-24T11:10:56.474Z,5020.00
2024-03-24T11:11:56.494Z,4436.00
2024-03-24T11:12:56.519Z,6240.00
2024-03-24T11:13:56.548Z,6812.00
2024-03-24T11:14:56.559Z,6360.00
2024-03-24T11:15:56.579Z,7660.00
2024-03-24T11:16:56.602Z,10916.00
2024-03-24T11:17:56.681Z,11428.00
2024-03-24T11:18:57.312Z,10204.00
2024-03-24T11:19:56.667Z,9040.00
2024-03-24T11:20:56.783Z,9236.00
2024-03-24T11:21:56.711Z,8820.00
2024-03-24T11:22:56.732Z,8196.00
2024-03-24T11:23:56.768Z,7184.00
2024-03-24T11:24:56.775Z,6840.00
2024-03-24T11:25:56.799Z,6892.00
2024-03-24T11:26:56.818Z,7564.00
2024-03-24T11:27:56.916Z,8788.00
2024-03-24T11:28:56.865Z,8960.00
2024-03-24T11:29:56.885Z,8444.00
2024-03-24T11:30:56.904Z,8936.00
2024-03-24T11:31:56.927Z,7464.00
2024-03-24T11:32:56.978Z,9812.00
2024-03-24T11:33:57.004Z,8464.00
2024-03-24T11:34:56.997Z,10324.00
2024-03-24T11:35:57.012Z,9292.00
2024-03-24T11:36:57.039Z,7428.00
2024-03-24T11:37:57.109Z,7496.00
2024-03-24T11:38:57.084Z,8412.00
2024-03-24T11:39:57.112Z,7224.00
2024-03-24T11:40:57.116Z,6832.00
2024-03-24T11:41:57.151Z,7596.00
2024-03-24T11:42:57.175Z,6580.00
2024-03-24T11:43:57.188Z,5988.00
2024-03-24T11:44:57.204Z,4644.00
2024-03-24T11:45:57.226Z,4812.00
2024-03-24T11:46:57.249Z,4928.00
2024-03-24T11:47:57.276Z,3852.00
2024-03-24T11:48:57.291Z,4868.00
2024-03-24T11:49:57.319Z,4928.00
2024-03-24T11:50:57.334Z,5072.00
2024-03-24T11:51:57.362Z,6000.00
2024-03-24T11:52:57.374Z,5720.00
2024-03-24T11:53:57.410Z,6420.00
2024-03-24T11:54:57.418Z,7620.00
2024-03-24T11:55:57.440Z,8168.00
2024-03-24T11:56:57.464Z,9024.00
2024-03-24T11:57:57.483Z,8984.00
2024-03-24T11:58:57.504Z,9776.00
2024-03-24T11:59:57.528Z,8892.00
2024-03-24T12:00:57.547Z,7520.00
2024-03-24T12:01:57.571Z,7168.00
2024-03-24T12:02:57.590Z,7696.00
2024-03-24T12:03:57.630Z,8880.00
2024-03-24T12:04:57.629Z,11220.00
2024-03-24T12:05:57.669Z,8560.00
2024-03-24T12:06:57.673Z,9944.00
2024-03-24T12:07:57.701Z,9656.00
2024-03-24T12:08:57.713Z,10160.00
2024-03-24T12:09:57.736Z,8076.00
2024-03-24T12:10:57.759Z,9600.00
2024-03-24T12:11:57.785Z,11620.00
2024-03-24T12:12:57.833Z,13372.00
2024-03-24T12:13:57.873Z,13372.00
2024-03-24T12:14:57.893Z,13720.00
2024-03-24T12:15:57.875Z,12016.00
2024-03-24T12:16:57.889Z,11112.00
2024-03-24T12:17:57.919Z,10596.00
2024-03-24T12:18:57.934Z,10756.00
2024-03-24T12:19:57.965Z,10728.00
2024-03-24T12:20:57.976Z,8684.00
2024-03-24T12:21:57.993Z,11388.00
2024-03-24T12:22:58.017Z,10908.00
2024-03-24T12:23:58.047Z,9220.00
2024-03-24T12:24:58.076Z,7532.00
2024-03-24T12:25:58.084Z,7240.00
2024-03-24T12:26:58.103Z,5552.00
2024-03-24T12:27:58.132Z,6200.00
2024-03-24T12:28:58.153Z,6112.00
2024-03-24T12:29:58.171Z,6388.00
2024-03-24T12:30:58.201Z,6340.00
2024-03-24T12:31:58.218Z,7768.00
2024-03-24T12:32:58.235Z,7544.00
2024-03-24T12:33:58.259Z,7168.00
2024-03-24T12:34:58.284Z,7156.00
2024-03-24T12:35:58.305Z,6000.00